createdAt,value
2023-04-16T00:00:04.520Z,47.40
2023-04-16T00:05:34.534Z,44.30
2023-04-16T00:10:38.322Z,54.10
2023-04-16T00:15:42.159Z,48.50
2023-04-16T00:20:45.941Z,50.80
2023-04-16T00:25:49.719Z,49.50
2023-04-16T00:30:53.716Z,50.20
2023-04-16T00:35:57.436Z,47.50
2023-04-16T00:41:01.362Z,46.90
2023-04-16T00:46:07.522Z,54.70
2023-04-16T00:51:11.893Z,53.40
2023-04-16T00:56:17.533Z,50.90
2023-04-16T01:01:21.603Z,46.00
2023-04-16T01:06:26.413Z,46.60
2023-04-16T01:11:30.181Z,41.60
2023-04-16T01:16:33.902Z,49.90
2023-04-16T01:21:37.627Z,51.10
2023-04-16T01:26:41.619Z,55.50
2023-04-16T01:31:47.151Z,58.90
2023-04-16T01:42:11.852Z,53.50
2023-04-16T01:47:15.603Z,50.70
2023-04-16T01:52:19.326Z,54.80
2023-04-16T01:57:23.102Z,61.50
2023-04-16T02:02:29.479Z,62.60
2023-04-16T02:07:33.494Z,62.90
2023-04-16T02:12:37.584Z,56.80
2023-04-16T02:17:41.387Z,49.50
2023-04-16T02:22:46.842Z,257.80
2023-04-16T02:27:51.965Z,361.80
2023-04-16T02:33:21.693Z,320.30
2023-04-16T02:38:32.115Z,274.70
2023-04-16T02:43:36.208Z,267.40
2023-04-16T02:48:41.412Z,362.60
2023-04-16T02:53:46.399Z,130.50
2023-04-16T02:58:50.769Z,45.60
2023-04-16T03:03:54.657Z,42.20
2023-04-16T03:08:58.429Z,39.90
2023-04-16T03:14:02.226Z,42.60
2023-04-16T03:19:06.430Z,42.40
2023-04-16T03:24:10.147Z,93.10
2023-04-16T03:29:14.000Z,116.00
2023-04-16T03:34:17.848Z,66.70
2023-04-16T03:39:24.396Z,87.30
2023-04-16T03:44:28.865Z,122.80
2023-04-16T03:49:32.717Z,226.40
2023-04-16T03:54:36.955Z,114.80
2023-04-16T03:59:55.858Z,74.00
2023-04-16T04:05:00.875Z,59.80
2023-04-16T04:10:06.988Z,67.60
2023-04-16T04:15:16.424Z,66.10
2023-04-16T04:20:20.660Z,58.70
2023-04-16T04:25:25.066Z,55.50
2023-04-16T04:30:29.318Z,60.10
2023-04-16T04:35:33.981Z,59.60
2023-04-16T04:40:38.724Z,100.80
2023-04-16T04:45:43.422Z,108.80
2023-04-16T04:50:47.683Z,86.60
2023-04-16T04:55:54.257Z,64.60
2023-04-16T05:01:01.495Z,55.50
2023-04-16T05:06:05.376Z,59.10
2023-04-16T05:11:09.213Z,53.30
2023-04-16T05:16:13.182Z,58.80
2023-04-16T05:21:17.126Z,52.20
2023-04-16T05:26:21.174Z,48.60
2023-04-16T05:31:24.994Z,49.60
2023-04-16T05:36:28.971Z,51.40
2023-04-16T05:41:32.849Z,43.50
2023-04-16T05:46:36.845Z,44.20
2023-04-16T05:51:41.012Z,42.30
2023-04-16T05:56:44.797Z,31.30
2023-04-16T06:01:48.528Z,38.10
2023-04-16T06:06:52.392Z,37.60
2023-04-16T06:11:56.741Z,34.10
2023-04-16T06:17:00.491Z,32.80
2023-04-16T06:22:05.758Z,31.90
2023-04-16T06:27:09.687Z,30.10
2023-04-16T06:32:13.558Z,26.70
2023-04-16T06:37:17.316Z,29.10
2023-04-16T06:42:21.202Z,29.90
2023-04-16T06:47:25.426Z,28.50
2023-04-16T06:52:29.948Z,27.30
2023-04-16T06:57:36.271Z,25.90
2023-04-16T07:02:41.479Z,29.70
2023-04-16T07:07:45.521Z,33.00
2023-04-16T07:12:49.306Z,33.00
2023-04-16T07:17:53.083Z,35.10
2023-04-16T07:22:57.686Z,29.80
2023-04-16T07:28:01.945Z,35.80
2023-04-16T07:33:06.264Z,33.70
2023-04-16T07:38:10.080Z,30.70
2023-04-16T07:43:15.947Z,31.10
2023-04-16T07:48:19.798Z,32.30
2023-04-16T07:53:23.576Z,29.90
2023-04-16T07:58:27.417Z,28.60
2023-04-16T08:03:31.735Z,30.30
2023-04-16T08:08:35.706Z,28.20
2023-04-16T08:13:39.547Z,26.50
2023-04-16T08:18:43.339Z,28.70
2023-04-16T08:23:47.077Z,25.30
2023-04-16T08:28:50.733Z,22.20
2023-04-16T08:33:54.335Z,22.90
2023-04-16T08:38:57.985Z,16.70
2023-04-16T08:44:12.494Z,22.40
2023-04-16T08:49:21.511Z,16.10
2023-04-16T08:54:56.767Z,14.90
2023-04-16T09:00:02.921Z,15.90
2023-04-16T09:05:08.340Z,16.20
2023-04-16T09:10:18.409Z,11.60
2023-04-16T09:15:24.028Z,10.90
2023-04-16T09:20:27.741Z,11.60
2023-04-16T09:25:35.571Z,12.30
2023-04-16T09:30:39.518Z,12.80
2023-04-16T09:35:51.232Z,16.30
2023-04-16T09:41:08.673Z,14.60
2023-04-16T09:46:15.143Z,12.80
2023-04-16T09:51:19.107Z,10.80
2023-04-16T09:56:26.580Z,10.40
2023-04-16T10:01:31.530Z,11.50
2023-04-16T10:06:36.706Z,12.60
2023-04-16T10:11:40.444Z,11.50
2023-04-16T10:16:44.347Z,8.90
2023-04-16T10:21:48.712Z,8.20
2023-04-16T10:26:53.451Z,7.40
2023-04-16T10:31:58.047Z,8.60
2023-04-16T10:37:01.727Z,6.20
2023-04-16T10:42:13.200Z,5.10
2023-04-16T10:47:16.926Z,4.90
2023-04-16T10:52:22.824Z,7.80
2023-04-16T10:57:29.761Z,3.70
2023-04-16T11:02:33.600Z,3.40
2023-04-16T11:07:39.644Z,6.70
2023-04-16T11:12:47.842Z,5.40
2023-04-16T11:17:52.967Z,4.70
2023-04-16T11:22:58.024Z,5.10
2023-04-16T11:28:02.953Z,6.40
2023-04-16T11:33:09.182Z,5.40
2023-04-16T11:38:12.937Z,6.10
2023-04-16T11:43:17.310Z,4.10
2023-04-16T11:48:22.997Z,4.70
2023-04-16T11:53:27.388Z,4.50
2023-04-16T11:58:31.400Z,5.10
2023-04-16T12:03:49.947Z,6.60
2023-04-16T12:08:53.700Z,5.40
2023-04-16T12:14:13.522Z,6.00
2023-04-16T12:19:17.559Z,4.80
2023-04-16T12:24:21.211Z,5.50
2023-04-16T12:29:26.696Z,4.90
2023-04-16T12:34:48.619Z,4.50
2023-04-16T12:39:53.155Z,5.10
2023-04-16T12:44:57.091Z,5.10
2023-04-16T12:50:01.029Z,4.70
2023-04-16T12:55:05.207Z,4.60
2023-04-16T13:00:13.011Z,7.00
2023-04-16T13:05:18.834Z,4.60
2023-04-16T13:10:23.815Z,5.20
2023-04-16T13:15:27.500Z,5.70
2023-04-16T13:20:31.878Z,4.50
2023-04-16T13:25:35.948Z,4.50
2023-04-16T13:30:40.232Z,5.20
2023-04-16T13:35:43.999Z,4.90
2023-04-16T13:40:47.941Z,4.00
2023-04-16T13:45:53.038Z,4.50
2023-04-16T13:50:57.108Z,5.30
2023-04-16T13:56:04.083Z,4.00
2023-04-16T14:01:10.698Z,4.70
2023-04-16T14:06:15.449Z,3.70
2023-04-16T14:11:19.370Z,4.50
2023-04-16T14:16:23.457Z,4.00
2023-04-16T14:21:28.149Z,3.50
2023-04-16T14:26:32.057Z,3.70
2023-04-16T14:31:37.185Z,3.10
2023-04-16T14:36:41.857Z,5.60
2023-04-16T14:41:46.932Z,5.00
2023-04-16T14:46:51.785Z,3.60
2023-04-16T14:51:57.020Z,4.00
2023-04-16T14:57:02.417Z,3.30
2023-04-16T15:02:07.797Z,3.80
2023-04-16T15:07:12.217Z,3.90
2023-04-16T15:12:19.158Z,2.90
2023-04-16T15:17:23.882Z,4.00
2023-04-16T15:22:29.420Z,2.90
2023-04-16T15:27:33.290Z,4.00
2023-04-16T15:32:37.749Z,2.70
2023-04-16T15:37:41.936Z,3.60
2023-04-16T15:42:47.082Z,2.40
2023-04-16T15:47:52.304Z,3.80
2023-04-16T15:52:58.324Z,3.50
2023-04-16T15:58:04.133Z,3.10
2023-04-16T16:03:10.595Z,3.10
2023-04-16T16:08:16.674Z,2.40
2023-04-16T16:13:22.359Z,4.90
2023-04-16T16:18:27.262Z,3.60
2023-04-16T16:23:32.109Z,4.90
2023-04-16T16:28:39.348Z,4.30
2023-04-16T16:33:45.791Z,5.00
2023-04-16T16:38:51.587Z,3.60
2023-04-16T16:43:57.488Z,3.00
2023-04-16T16:49:05.733Z,3.80
2023-04-16T16:54:11.464Z,4.10
2023-04-16T16:59:15.829Z,3.90
2023-04-16T17:04:21.040Z,4.00
2023-04-16T17:09:26.445Z,3.30
2023-04-16T17:14:31.174Z,5.60
2023-04-16T17:19:37.300Z,6.30
2023-04-16T17:24:43.145Z,4.80
2023-04-16T17:29:48.645Z,17.80
2023-04-16T17:34:57.177Z,21.10
2023-04-16T17:40:03.535Z,9.40
2023-04-16T17:45:09.555Z,10.70
2023-04-16T17:50:14.273Z,7.00
2023-04-16T17:55:22.706Z,6.00
2023-04-16T18:00:29.161Z,7.00
2023-04-16T18:05:35.814Z,6.00
2023-04-16T18:10:45.710Z,7.40
2023-04-16T18:15:52.623Z,11.70
2023-04-16T18:21:00.625Z,12.60
2023-04-16T18:26:08.498Z,9.50
2023-04-16T18:31:20.529Z,11.00
2023-04-16T18:36:41.940Z,10.10
2023-04-16T18:41:49.026Z,11.30
2023-04-16T18:46:54.844Z,8.60
2023-04-16T18:51:59.942Z,8.80
2023-04-16T18:57:06.817Z,10.90
2023-04-16T19:02:13.153Z,14.80
2023-04-16T19:07:19.677Z,11.60
2023-04-16T19:12:25.514Z,13.00
2023-04-16T19:17:32.720Z,13.10
2023-04-16T19:22:41.354Z,16.00
2023-04-16T19:27:47.431Z,14.60
2023-04-16T19:32:53.824Z,21.80
2023-04-16T19:38:00.514Z,15.20
2023-04-16T19:43:08.862Z,22.80
2023-04-16T19:48:14.979Z,36.10
2023-04-16T19:53:20.689Z,18.90
2023-04-16T19:58:28.540Z,24.30
2023-04-16T20:03:33.357Z,13.40
2023-04-16T20:08:39.640Z,17.50
2023-04-16T20:13:50.552Z,15.20
2023-04-16T20:18:56.496Z,15.80
2023-04-16T20:24:01.164Z,16.20
2023-04-16T20:29:07.257Z,18.00
2023-04-16T20:34:11.260Z,15.50
2023-04-16T20:39:21.146Z,17.10
2023-04-16T20:44:35.657Z,16.10
2023-04-16T20:49:41.068Z,18.70
2023-04-16T20:54:46.184Z,20.00
2023-04-16T20:59:49.913Z,19.70
2023-04-16T21:04:53.993Z,24.30
2023-04-16T21:09:57.724Z,20.80
2023-04-16T21:15:01.454Z,18.20
2023-04-16T21:20:08.126Z,18.30
2023-04-16T21:25:12.052Z,20.50
2023-04-16T21:30:17.508Z,24.60
2023-04-16T21:35:21.324Z,24.20
2023-04-16T21:40:25.104Z,22.50
2023-04-16T21:45:30.456Z,22.20
2023-04-16T21:50:34.736Z,23.60
2023-04-16T21:55:41.108Z,21.20
2023-04-16T22:00:45.090Z,20.80
2023-04-16T22:05:48.931Z,19.00
2023-04-16T22:10:52.706Z,21.80
2023-04-16T22:15:56.664Z,22.50
2023-04-16T22:21:01.542Z,21.10
2023-04-16T22:26:05.454Z,27.30
2023-04-16T22:31:10.537Z,25.60
2023-04-16T22:36:14.224Z,26.70
2023-04-16T22:41:17.810Z,27.40
2023-04-16T22:46:22.694Z,27.40
2023-04-16T22:51:26.470Z,27.70
2023-04-16T22:56:31.440Z,29.20
2023-04-16T23:01:35.479Z,35.00
2023-04-16T23:06:40.961Z,38.10
2023-04-16T23:11:44.718Z,36.90
2023-04-16T23:16:48.556Z,38.20
2023-04-16T23:21:52.397Z,35.70
2023-04-16T23:26:56.497Z,35.00
2023-04-16T23:32:00.332Z,34.00
2023-04-16T23:37:03.978Z,30.10
2023-04-16T23:42:07.733Z,30.40
2023-04-16T23:47:11.463Z,34.60
2023-04-16T23:52:15.220Z,37.30
2023-04-16T23:57:19.576Z,41.20
